Time;durP1;ratioP1;P1;durP2;ratioP2;P2;SDS_P1;SDS_P2;PMS_P1;PMS_P2;Temp;Humidity;BMP_temperature;BMP_pressure;BME280_temperature;BME280_humidity;BME280_pressure;Samples;Min_cycle;Max_cycle;Signal;HPM_P1;HPM_P2
2023/07/17 00:00:22;;;;;;;8.95;6.60;;;;;;;24.89;76.04;98469.16;5112023;28;20680;-56
2023/07/17 00:02:48;;;;;;;9.80;6.45;;;;;;;24.52;78.64;98461.50;5112012;28;20207;-56
2023/07/17 00:05:13;;;;;;;14.55;6.63;;;;;;;24.21;81.08;98461.00;5111906;28;20187;-56
2023/07/17 00:07:40;;;;;;;9.20;6.13;;;;;;;24.15;82.30;98477.63;5111996;28;20175;-56
2023/07/17 00:10:10;;;;;;;7.80;6.05;;;;;;;24.12;82.30;98452.59;5111953;28;20171;-56
2023/07/17 00:12:36;;;;;;;9.93;6.55;;;;;;;24.11;81.89;98449.13;5111893;28;20696;-56
2023/07/17 00:15:05;;;;;;;7.20;6.50;;;;;;;23.81;83.15;98440.44;5111948;28;20545;-56
2023/07/17 00:17:31;;;;;;;8.75;6.40;;;;;;;23.98;81.53;98446.38;5111712;28;20249;-56
2023/07/17 00:19:57;;;;;;;10.25;5.60;;;;;;;24.20;81.09;98477.91;5111851;28;20202;-56
2023/07/17 00:22:24;;;;;;;7.03;5.53;;;;;;;24.24;78.89;98439.50;5111761;28;20187;-56
2023/07/17 00:24:50;;;;;;;9.07;6.05;;;;;;;24.42;78.16;98455.72;5111869;28;20172;-56
2023/07/17 00:27:16;;;;;;;6.43;5.82;;;;;;;24.32;77.77;98441.19;5111828;28;20712;-55
2023/07/17 00:29:43;;;;;;;6.25;5.75;;;;;;;24.48;76.57;98449.66;5112031;28;20262;-56
2023/07/17 00:32:12;;;;;;;7.72;5.80;;;;;;;24.28;77.32;98456.63;5111666;28;20236;-56
2023/07/17 00:34:41;;;;;;;6.15;5.55;;;;;;;24.12;77.90;98452.59;5115448;28;20172;-56
2023/07/17 00:37:07;;;;;;;8.05;5.60;;;;;;;23.96;79.32;98456.28;5115239;28;20171;-56
2023/07/17 00:39:33;;;;;;;10.43;6.03;;;;;;;23.86;80.98;98459.22;5115288;28;20286;-56
2023/07/17 00:42:01;;;;;;;10.15;7.05;;;;;;;23.72;82.64;98471.66;5115243;28;20179;-56
2023/07/17 00:44:27;;;;;;;7.30;5.68;;;;;;;23.62;82.79;98457.91;5115176;28;20203;-56
2023/07/17 00:46:54;;;;;;;6.30;5.70;;;;;;;23.69;83.83;98480.78;5115173;28;20277;-56
2023/07/17 00:49:21;;;;;;;7.85;5.70;;;;;;;23.91;81.54;98471.09;5115137;28;20170;-56
2023/07/17 00:51:47;;;;;;;6.28;5.75;;;;;;;24.13;78.95;98462.97;5112488;28;20215;-56
2023/07/17 00:54:15;;;;;;;6.50;5.93;;;;;;;24.46;77.30;98474.69;5112545;28;20245;-56
2023/07/17 00:56:43;;;;;;;8.07;5.50;;;;;;;24.46;76.77;98494.03;5112449;28;20563;-56
2023/07/17 00:59:09;;;;;;;6.35;5.35;;;;;;;24.44;76.70;98496.03;5112413;28;20199;-56
2023/07/17 01:01:35;;;;;;;6.10;5.55;;;;;;;24.43;77.57;98478.53;5112397;28;20194;-56
2023/07/17 01:04:05;;;;;;;7.35;6.05;;;;;;;24.64;75.31;98496.22;5112377;28;20214;-56
2023/07/17 01:06:31;;;;;;;8.80;5.72;;;;;;;24.68;72.88;98477.13;5112148;28;20304;-56
2023/07/17 01:08:59;;;;;;;10.40;5.75;;;;;;;24.92;71.30;98484.66;5112321;28;20175;-56
2023/07/17 01:11:25;;;;;;;6.68;5.70;;;;;;;24.52;74.06;98466.81;5112162;28;20191;-56
2023/07/17 01:13:51;;;;;;;10.63;5.70;;;;;;;24.19;76.01;98486.84;5112171;28;20213;-56
2023/07/17 01:16:16;;;;;;;8.93;6.05;;;;;;;23.89;78.20;98481.03;5112088;28;20265;-56
2023/07/17 01:18:42;;;;;;;7.47;6.43;;;;;;;23.79;78.92;98478.66;5112060;28;20716;-57
2023/07/17 01:21:11;;;;;;;7.78;6.35;;;;;;;23.72;80.34;98484.88;5091700;28;20194;-57
2023/07/17 01:23:37;;;;;;;5.93;5.38;;;;;;;23.67;78.98;98456.38;5108885;28;20191;-57
2023/07/17 01:26:22;;;;;;;8.60;5.45;;;;;;;23.92;78.07;98493.88;5111981;28;20183;-55
2023/07/17 01:28:48;;;;;;;10.88;6.07;;;;;;;23.51;78.42;98458.38;5111675;28;20315;-55
2023/07/17 01:31:13;;;;;;;8.82;5.78;;;;;;;23.63;78.55;98476.22;5111824;28;20638;-55
2023/07/17 01:33:39;;;;;;;8.13;5.60;;;;;;;23.62;80.78;98476.41;5111792;28;20175;-55
2023/07/17 01:36:06;;;;;;;7.80;7.00;;;;;;;23.67;83.21;98474.03;5111706;28;20198;-55
2023/07/17 01:38:33;;;;;;;8.00;6.95;;;;;;;23.87;82.61;98483.81;5111544;28;20241;-55
2023/07/17 01:40:58;;;;;;;12.63;6.53;;;;;;;23.73;82.95;98474.94;5111629;28;20215;-55
2023/07/17 01:43:24;;;;;;;8.13;6.85;;;;;;;23.74;83.05;98476.56;5111155;28;20717;-55
2023/07/17 01:45:49;;;;;;;7.15;6.45;;;;;;;23.69;83.11;98457.78;5111559;28;20175;-55
2023/07/17 01:48:17;;;;;;;7.72;6.28;;;;;;;23.66;84.31;98481.13;5111506;28;20217;-55
2023/07/17 01:50:45;;;;;;;7.30;6.57;;;;;;;23.60;84.79;98502.22;5111403;28;20685;-55
2023/07/17 01:53:11;;;;;;;7.05;6.13;;;;;;;23.42;84.92;98496.50;5113392;28;20229;-55
2023/07/17 01:55:37;;;;;;;9.75;6.35;;;;;;;23.18;84.20;98470.34;5113817;28;20229;-55
2023/07/17 01:58:02;;;;;;;8.80;5.90;;;;;;;22.97;83.89;98452.56;5113629;28;20198;-55
2023/07/17 02:00:28;;;;;;;8.23;5.85;;;;;;;22.93;83.34;98450.47;5113697;28;20270;-55
2023/07/17 02:02:53;;;;;;;6.10;5.40;;;;;;;22.91;83.41;98463.03;5113657;28;20637;-55
2023/07/17 02:05:20;;;;;;;7.97;5.50;;;;;;;22.76;83.91;98467.47;5113540;28;20671;-55
2023/07/17 02:07:46;;;;;;;10.27;5.75;;;;;;;23.16;83.43;98496.09;5113545;28;20176;-55
2023/07/17 02:10:11;;;;;;;6.80;5.53;;;;;;;;;;5113522;28;20187;-55
2023/07/17 02:12:36;;;;;;;8.17;6.73;;;;;;;22.78;88.79;98473.41;5113455;28;20186;-55
2023/07/17 02:15:02;;;;;;;7.47;6.68;;;;;;;23.08;88.13;98480.34;5113485;28;20397;-55
2023/07/17 02:17:28;;;;;;;9.00;6.80;;;;;;;23.29;88.70;98496.28;5113293;28;20268;-56
2023/07/17 02:19:53;;;;;;;8.35;7.45;;;;;;;23.06;90.24;98463.84;5113099;28;20195;-56
2023/07/17 02:22:18;;;;;;;12.50;7.32;;;;;;;23.28;90.60;98500.78;5113265;28;20171;-56
2023/07/17 02:24:44;;;;;;;9.68;7.78;;;;;;;23.09;91.32;98492.53;5113535;28;20259;-56
2023/07/17 02:27:09;;;;;;;8.10;7.32;;;;;;;22.76;93.37;98470.09;5112943;28;20177;-56
2023/07/17 02:29:35;;;;;;;9.38;7.28;;;;;;;22.74;93.54;98475.59;5113181;28;20171;-55
2023/07/17 02:32:01;;;;;;;9.88;7.75;;;;;;;22.70;93.61;98471.66;5113006;28;20178;-56
2023/07/17 02:34:26;;;;;;;8.98;7.03;;;;;;;23.07;91.88;98491.91;5113044;28;20253;-55
2023/07/17 02:36:54;;;;;;;7.47;6.60;;;;;;;23.14;89.93;98495.47;5113040;28;20171;-55
2023/07/17 02:39:20;;;;;;;8.00;7.20;;;;;;;23.07;89.82;98474.22;5112691;28;20247;-56
2023/07/17 02:41:46;;;;;;;8.02;6.70;;;;;;;22.99;90.37;98470.84;5112938;28;20637;-56
2023/07/17 02:44:12;;;;;;;8.00;6.53;;;;;;;22.92;90.50;98498.97;5112536;28;20220;-56
2023/07/17 02:46:38;;;;;;;8.70;6.35;;;;;;;22.74;89.96;98474.75;5112853;28;20167;-56
2023/07/17 02:49:03;;;;;;;9.52;6.72;;;;;;;22.76;90.03;98468.28;5112528;28;20213;-56
2023/07/17 02:51:29;;;;;;;8.75;7.38;;;;;;;22.66;89.84;98456.38;5112667;28;20254;-56
2023/07/17 02:53:54;;;;;;;8.23;6.72;;;;;;;22.78;89.54;98454.94;5112747;28;20177;-55
2023/07/17 02:56:20;;;;;;;12.35;7.30;;;;;;;22.71;90.52;98454.00;5111624;28;20640;-55
2023/07/17 02:58:48;;;;;;;9.25;6.80;;;;;;;22.87;90.84;98474.94;5112566;28;20249;-57
2023/07/17 03:01:14;;;;;;;7.82;7.03;;;;;;;22.93;90.15;98476.84;5112655;28;20602;-57
2023/07/17 03:03:40;;;;;;;7.18;6.55;;;;;;;23.09;89.76;98490.72;5112611;28;20178;-56
2023/07/17 03:06:05;;;;;;;9.98;6.90;;;;;;;22.99;89.08;98455.03;5112173;28;20582;-57
2023/07/17 03:08:31;;;;;;;7.80;7.00;;;;;;;22.72;90.74;98458.28;5112513;28;20266;-57
2023/07/17 03:10:56;;;;;;;8.07;7.28;;;;;;;23.03;90.07;98482.69;5112453;28;20182;-57
2023/07/17 03:13:21;;;;;;;8.05;6.85;;;;;;;22.71;90.79;98451.34;5112745;28;20258;-57
2023/07/17 03:15:48;;;;;;;8.70;7.47;;;;;;;22.62;91.74;98460.34;5112473;28;20386;-57
2023/07/17 03:18:14;;;;;;;7.93;7.13;;;;;;;22.69;92.11;98471.81;5112352;28;20204;-57
2023/07/17 03:20:43;;;;;;;8.80;7.18;;;;;;;22.77;91.58;98482.28;5112376;28;20174;-56
2023/07/17 03:23:09;;;;;;;9.80;7.43;;;;;;;22.52;92.89;98465.06;5112207;28;20183;-57
2023/07/17 03:25:34;;;;;;;7.40;6.50;;;;;;;22.56;94.03;98503.28;5112334;28;20204;-55
2023/07/17 03:28:01;;;;;;;7.65;6.60;;;;;;;22.43;94.32;98508.31;5112095;28;20830;-55
2023/07/17 03:30:26;;;;;;;7.60;5.25;;;;;;;22.50;92.73;98504.78;5112301;28;20171;-56
2023/07/17 03:32:51;;;;;;;6.38;5.80;;;;;;;22.66;90.43;98506.50;5111947;28;20185;-57
2023/07/17 03:35:17;;;;;;;7.45;5.18;;;;;;;22.56;88.63;98476.91;5112209;28;20266;-56
2023/07/17 03:37:42;;;;;;;6.78;5.18;;;;;;;22.87;87.74;98503.97;5112184;28;20211;-56
2023/07/17 03:40:10;;;;;;;6.70;6.10;;;;;;;23.07;86.37;98513.03;5112142;28;20262;-56
2023/07/17 03:42:36;;;;;;;5.28;4.78;;;;;;;23.30;84.44;98508.53;5112188;28;20175;-56
2023/07/17 03:45:01;;;;;;;6.80;5.13;;;;;;;23.10;85.61;98473.88;5112232;28;20167;-56
2023/07/17 03:47:27;;;;;;;5.85;5.22;;;;;;;23.46;84.69;98513.59;5112086;28;20187;-56
2023/07/17 03:49:52;;;;;;;6.47;5.60;;;;;;;23.57;83.54;98499.91;5112088;28;20243;-56
2023/07/17 03:52:17;;;;;;;8.75;6.65;;;;;;;23.80;84.72;98499.59;5112015;28;20657;-56
2023/07/17 03:54:43;;;;;;;9.32;8.27;;;;;;;24.03;86.86;98512.72;5112099;28;20171;-56
2023/07/17 03:57:08;;;;;;;8.35;7.65;;;;;;;23.96;88.31;98524.22;5111966;28;20520;-56
2023/07/17 03:59:50;;;;;;;8.55;7.75;;;;;;;23.83;88.09;98507.16;5112279;28;20201;-56
2023/07/17 04:02:15;;;;;;;9.13;7.97;;;;;;;23.91;86.95;98482.50;5112358;28;20637;-56
2023/07/17 04:04:41;;;;;;;9.30;8.48;;;;;;;24.37;86.80;98524.25;5112147;28;20223;-56
2023/07/17 04:07:06;;;;;;;13.15;9.88;;;;;;;24.37;86.75;98518.97;5113467;28;20212;-56
2023/07/17 04:09:32;;;;;;;10.35;9.32;;;;;;;24.46;86.33;98524.94;5115582;28;20531;-56
2023/07/17 04:11:57;;;;;;;10.32;9.32;;;;;;;24.34;86.12;98494.72;5115848;28;20171;-56
2023/07/17 04:14:22;;;;;;;9.57;8.55;;;;;;;24.63;85.99;98537.78;5115854;27;20167;-56
2023/07/17 04:16:48;;;;;;;10.15;9.15;;;;;;;24.56;85.41;98510.38;5115831;28;20273;-56
2023/07/17 04:19:13;;;;;;;9.57;8.10;;;;;;;24.83;83.08;98528.16;5115609;28;20289;-56
2023/07/17 04:21:38;;;;;;;9.52;8.10;;;;;;;24.87;80.12;98520.66;5115644;28;20175;-56
2023/07/17 04:24:04;;;;;;;7.55;6.80;;;;;;;25.12;77.44;98537.72;5115638;27;20720;-56
2023/07/17 04:26:29;;;;;;;14.93;7.80;;;;;;;25.16;75.27;98544.28;5115539;28;20198;-56
2023/07/17 04:28:55;;;;;;;10.25;5.88;;;;;;;25.24;71.01;98537.03;5115487;28;20179;-56
2023/07/17 04:31:20;;;;;;;5.55;5.05;;;;;;;25.44;69.41;98567.16;5115533;28;20168;-56
2023/07/17 04:33:46;;;;;;;7.57;5.03;;;;;;;25.29;68.79;98539.94;5115153;28;20637;-56
2023/07/17 04:36:11;;;;;;;6.18;5.15;;;;;;;25.57;67.23;98569.03;5115437;28;20209;-56
2023/07/17 04:38:36;;;;;;;5.35;4.50;;;;;;;25.67;65.76;98578.25;5115287;28;20560;-56
2023/07/17 04:41:03;;;;;;;5.00;4.60;;;;;;;25.64;63.96;98544.22;5115359;28;20220;-56
2023/07/17 04:43:28;;;;;;;10.48;4.53;;;;;;;25.83;61.92;98555.94;5114874;28;20626;-56
2023/07/17 04:45:53;;;;;;;6.93;4.32;;;;;;;25.95;61.76;98576.38;5115204;28;20266;-56
2023/07/17 04:48:19;;;;;;;4.90;4.40;;;;;;;25.91;60.99;98548.66;5115127;28;20179;-57
2023/07/17 04:50:45;;;;;;;4.88;4.20;;;;;;;26.07;60.63;98558.09;5115138;28;20175;-56
2023/07/17 04:53:11;;;;;;;5.63;4.22;;;;;;;26.25;59.57;98572.41;5115079;28;20178;-56
2023/07/17 04:55:36;;;;;;;5.35;4.85;;;;;;;26.32;58.55;98545.91;5115067;28;20172;-56
2023/07/17 04:58:03;;;;;;;8.48;4.78;;;;;;;26.59;58.58;98585.59;5114682;28;20654;-56
2023/07/17 05:00:28;;;;;;;9.07;5.10;;;;;;;26.33;59.11;98553.69;5114893;28;20194;-57
2023/07/17 05:02:54;;;;;;;10.60;7.22;;;;;;;26.15;66.59;98548.13;5114945;28;20549;-56
2023/07/17 05:05:19;;;;;;;12.65;7.15;;;;;;;26.37;65.87;98583.28;5114521;28;20215;-56
2023/07/17 05:07:45;;;;;;;7.60;6.55;;;;;;;26.30;65.66;98572.63;5114799;28;20209;-56
2023/07/17 05:10:11;;;;;;;9.77;6.30;;;;;;;26.42;65.01;98578.19;5114726;28;20241;-57
2023/07/17 05:12:38;;;;;;;8.68;5.72;;;;;;;26.36;62.21;98549.81;5114651;28;20175;-57
2023/07/17 05:15:04;;;;;;;7.28;4.93;;;;;;;26.65;59.21;98579.47;5114655;28;20266;-55
2023/07/17 05:17:29;;;;;;;8.98;4.90;;;;;;;26.61;58.83;98564.16;5114472;28;20285;-55
2023/07/17 05:19:55;;;;;;;9.38;4.85;;;;;;;26.59;58.51;98551.09;5113638;28;20179;-56
2023/07/17 05:22:20;;;;;;;9.13;4.85;;;;;;;26.79;57.08;98567.03;5114481;28;20164;-55
2023/07/17 05:24:48;;;;;;;6.57;4.70;;;;;;;26.73;57.10;98557.22;5114420;28;20258;-56
2023/07/17 05:27:13;;;;;;;12.68;5.55;;;;;;;26.99;56.27;98579.31;5114329;28;20319;-56
2023/07/17 05:29:39;;;;;;;5.07;4.40;;;;;;;26.92;55.75;98554.59;5114387;28;20651;-56
2023/07/17 05:32:05;;;;;;;8.55;4.93;;;;;;;27.14;55.68;98579.09;5114309;28;20185;-56
2023/07/17 05:34:30;;;;;;;7.90;5.40;;;;;;;27.04;55.39;98547.63;5114184;28;20184;-56
2023/07/17 05:36:56;;;;;;;9.68;4.75;;;;;;;27.34;54.93;98588.72;5114242;28;20665;-55
2023/07/17 05:39:21;;;;;;;9.57;4.50;;;;;;;27.26;54.22;98553.56;5113779;28;20332;-55
2023/07/17 05:41:47;;;;;;;6.15;4.47;;;;;;;27.33;54.04;98570.31;5114418;28;20174;-55
2023/07/17 05:44:12;;;;;;;11.38;5.05;;;;;;;27.26;54.35;98562.38;5114121;28;20258;-56
2023/07/17 05:46:38;;;;;;;10.52;4.57;;;;;;;27.49;53.90;98580.50;5114030;28;20175;-57
2023/07/17 05:49:03;;;;;;;6.55;4.88;;;;;;;27.42;54.01;98580.53;5114052;28;20174;-56
2023/07/17 05:51:31;;;;;;;17.08;5.72;;;;;;;27.02;54.91;98562.97;5113913;28;20174;-56
2023/07/17 05:53:56;;;;;;;6.47;5.32;;;;;;;27.17;56.32;98576.88;5113957;28;20168;-56
2023/07/17 05:56:22;;;;;;;10.07;5.20;;;;;;;27.14;56.01;98571.97;5113788;28;20174;-56
2023/07/17 05:58:47;;;;;;;8.18;5.30;;;;;;;27.18;56.38;98578.50;5113701;28;20293;-56
2023/07/17 06:01:13;;;;;;;8.23;5.70;;;;;;;27.23;55.95;98576.06;5113508;28;20167;-56
2023/07/17 06:03:38;;;;;;;8.10;5.15;;;;;;;27.26;56.42;98574.81;5113689;28;20597;-56
2023/07/17 06:06:04;;;;;;;6.18;4.70;;;;;;;27.32;56.37;98561.53;5113766;28;20274;-57
2023/07/17 06:08:29;;;;;;;11.45;5.53;;;;;;;27.44;56.48;98565.19;5113857;28;20182;-57
2023/07/17 06:10:54;;;;;;;9.82;5.95;;;;;;;27.55;55.75;98551.25;5113615;28;20169;-56
2023/07/17 06:13:20;;;;;;;6.45;5.28;;;;;;;27.75;55.24;98569.81;5113479;28;20676;-56
2023/07/17 06:15:46;;;;;;;8.48;5.57;;;;;;;27.82;55.23;98560.00;5113462;28;20541;-56
2023/07/17 06:18:11;;;;;;;8.18;5.55;;;;;;;27.91;55.24;98569.38;5113013;28;20699;-56
2023/07/17 06:20:37;;;;;;;8.88;5.18;;;;;;;27.98;54.89;98563.00;5090472;28;20187;-56
2023/07/17 06:23:02;;;;;;;10.23;6.05;;;;;;;28.19;54.99;98581.34;5090526;28;20278;-56
2023/07/17 06:25:27;;;;;;;5.43;4.85;;;;;;;28.24;54.35;98580.69;5090482;28;20190;-57
2023/07/17 06:27:53;;;;;;;7.35;6.07;;;;;;;28.29;54.79;98568.38;5090446;28;20212;-57
2023/07/17 06:30:18;;;;;;;8.00;5.40;;;;;;;28.42;54.40;98552.38;5090295;28;20624;-57
2023/07/17 06:32:44;;;;;;;8.35;5.80;;;;;;;28.47;54.59;98557.88;5090402;28;20179;-57
2023/07/17 06:35:09;;;;;;;6.68;5.43;;;;;;;28.37;54.75;98533.56;5090268;28;20195;-56
2023/07/17 06:37:35;;;;;;;10.75;6.05;;;;;;;28.47;55.18;98543.72;5090187;28;20314;-56
2023/07/17 06:40:00;;;;;;;8.90;5.72;;;;;;;28.51;54.85;98540.41;5090239;28;20183;-56
2023/07/17 06:42:26;;;;;;;8.88;5.60;;;;;;;28.60;55.09;98549.78;5090123;28;20337;-56
2023/07/17 06:44:51;;;;;;;9.63;5.97;;;;;;;28.67;55.16;98553.22;5090193;28;20676;-56
2023/07/17 06:47:16;;;;;;;10.15;6.47;;;;;;;28.70;54.78;98563.47;5090058;28;20226;-55
2023/07/17 06:49:42;;;;;;;10.23;5.70;;;;;;;28.46;55.95;98558.88;5090102;28;20179;-56
2023/07/17 06:52:08;;;;;;;6.70;6.05;;;;;;;28.53;56.37;98559.69;5106235;28;20274;-56
2023/07/17 06:54:33;;;;;;;7.90;5.75;;;;;;;28.43;55.95;98547.84;5112789;28;20175;-56
2023/07/17 06:56:59;;;;;;;10.48;5.28;;;;;;;28.66;55.83;98554.25;5112713;28;20194;-56
2023/07/17 06:59:28;;;;;;;11.73;5.50;;;;;;;28.76;54.54;98546.59;5112663;28;20239;-55
2023/07/17 07:01:54;;;;;;;7.53;5.93;;;;;;;28.90;54.52;98545.47;5112750;28;20645;-55
2023/07/17 07:04:19;;;;;;;7.88;5.70;;;;;;;29.12;53.90;98562.72;5112485;28;20323;-56
2023/07/17 07:06:45;;;;;;;9.40;5.35;;;;;;;29.22;53.50;98560.34;5112767;28;20676;-55
2023/07/17 07:09:11;;;;;;;9.05;5.55;;;;;;;29.20;52.84;98543.78;5112494;28;20221;-55
2023/07/17 07:11:37;;;;;;;13.73;5.03;;;;;;;29.20;52.63;98535.78;5112184;28;20657;-56
2023/07/17 07:14:02;;;;;;;13.40;5.68;;;;;;;29.20;51.93;98527.78;5112523;28;20224;-56
2023/07/17 07:16:28;;;;;;;7.20;5.25;;;;;;;29.29;51.39;98528.31;5112177;28;20236;-56
2023/07/17 07:18:53;;;;;;;9.52;5.50;;;;;;;29.40;50.72;98536.41;5112411;28;20198;-56
2023/07/17 07:21:19;;;;;;;9.77;5.47;;;;;;;29.58;50.64;98547.13;5112294;28;20531;-56
2023/07/17 07:23:44;;;;;;;6.85;4.85;;;;;;;29.46;50.03;98516.88;5112471;28;20247;-56
2023/07/17 07:26:09;;;;;;;7.65;5.35;;;;;;;29.72;49.27;98540.59;5112388;28;20179;-56
2023/07/17 07:28:35;;;;;;;7.55;5.25;;;;;;;29.56;49.72;98533.16;5112376;28;20175;-56
2023/07/17 07:31:02;;;;;;;7.80;4.93;;;;;;;29.17;50.13;98522.91;5112342;28;20174;-56
2023/07/17 07:33:27;;;;;;;6.38;5.65;;;;;;;29.17;50.50;98498.91;5112310;28;20171;-56
2023/07/17 07:35:53;;;;;;;7.65;5.80;;;;;;;29.28;50.49;98521.34;5112237;28;20171;-55
2023/07/17 07:38:19;;;;;;;8.23;5.18;;;;;;;29.29;50.94;98509.66;5112370;28;20202;-55
2023/07/17 07:40:44;;;;;;;5.97;5.18;;;;;;;29.36;51.12;98494.41;5112254;28;20171;-55
2023/07/17 07:43:10;;;;;;;6.22;5.47;;;;;;;29.30;50.22;98496.09;5115719;28;20671;-56
2023/07/17 07:45:35;;;;;;;5.82;5.22;;;;;;;29.40;50.37;98501.75;5116397;28;20171;-56
2023/07/17 07:48:01;;;;;;;6.32;5.05;;;;;;;29.52;50.04;98502.63;5116346;28;20171;-56
2023/07/17 07:50:26;;;;;;;9.93;6.63;;;;;;;29.74;49.69;98522.50;5116323;28;20182;-56
2023/07/17 07:52:52;;;;;;;6.07;5.30;;;;;;;29.79;48.90;98514.63;5116294;28;20254;-56
2023/07/17 07:55:17;;;;;;;7.40;5.30;;;;;;;29.66;49.45;98509.47;5116254;28;20225;-56
2023/07/17 07:57:42;;;;;;;8.98;5.78;;;;;;;29.49;49.39;98502.28;5116121;28;20202;-56
2023/07/17 08:00:08;;;;;;;9.77;5.50;;;;;;;29.39;49.89;98489.44;5116358;28;20609;-56
2023/07/17 08:02:34;;;;;;;16.65;6.35;;;;;;;29.37;50.11;98494.19;5116337;28;20266;-56
2023/07/17 08:04:59;;;;;;;7.70;5.60;;;;;;;29.42;51.19;98480.19;5115563;28;20309;-56
2023/07/17 08:07:24;;;;;;;8.63;5.95;;;;;;;29.58;50.45;98491.09;5116053;27;20256;-56
2023/07/17 08:09:50;;;;;;;10.50;5.88;;;;;;;29.66;50.41;98489.97;5115969;28;20175;-56
2023/07/17 08:12:15;;;;;;;12.65;6.82;;;;;;;29.65;50.15;98481.16;5115856;28;20212;-56
2023/07/17 08:14:41;;;;;;;10.07;5.57;;;;;;;29.78;50.20;98502.34;5115854;27;20231;-56
2023/07/17 08:17:06;;;;;;;8.90;5.95;;;;;;;29.90;50.93;98494.41;5115685;28;20724;-56
2023/07/17 08:19:31;;;;;;;13.18;5.53;;;;;;;30.12;48.66;98500.88;5115651;28;20202;-56
2023/07/17 08:21:57;;;;;;;11.23;5.78;;;;;;;30.26;49.19;98495.13;5115984;28;20206;-56
2023/07/17 08:24:22;;;;;;;10.30;5.85;;;;;;;30.28;47.69;98477.06;5115920;28;20175;-56
2023/07/17 08:26:47;;;;;;;10.95;6.30;;;;;;;30.54;47.74;98508.69;5115646;28;20183;-56
2023/07/17 08:29:13;;;;;;;9.60;5.72;;;;;;;30.54;47.25;98481.97;5115266;28;20176;-56
2023/07/17 08:31:38;;;;;;;10.30;5.63;;;;;;;30.66;47.63;98498.88;5115547;28;20176;-56
2023/07/17 08:34:04;;;;;;;10.13;5.43;;;;;;;30.60;47.38;98493.63;5115485;28;20262;-56
2023/07/17 08:36:30;;;;;;;6.65;5.43;;;;;;;30.65;48.33;98494.56;5115405;28;20183;-56
2023/07/17 08:38:56;;;;;;;6.15;5.20;;;;;;;30.73;48.06;98486.19;5115339;28;20344;-57
2023/07/17 08:41:22;;;;;;;8.45;5.70;;;;;;;30.89;46.67;98490.06;5115350;28;20640;-57
2023/07/17 08:43:51;;;;;;;14.13;6.65;;;;;;;30.86;46.52;98472.66;5115305;28;20179;-57
2023/07/17 08:46:17;;;;;;;10.60;5.03;;;;;;;31.02;46.30;98501.31;5115600;28;20183;-56
2023/07/17 08:48:43;;;;;;;11.35;6.63;;;;;;;30.80;47.14;98473.56;5115242;28;20246;-56
2023/07/17 08:51:12;;;;;;;11.32;5.45;;;;;;;31.00;46.25;98499.94;5115133;27;20181;-57
2023/07/17 08:53:43;;;;;;;7.68;5.38;;;;;;;31.01;47.76;98494.34;5113844;28;20182;-55
2023/07/17 08:56:11;;;;;;;10.88;5.22;;;;;;;31.14;46.88;98496.00;5115126;28;20171;-56
2023/07/17 08:58:37;;;;;;;11.60;5.50;;;;;;;31.07;46.52;98466.69;5114926;28;20194;-56
2023/07/17 09:01:03;;;;;;;10.40;5.00;;;;;;;31.22;45.16;98475.09;5115023;28;20180;-56
2023/07/17 09:03:32;;;;;;;5.43;4.85;;;;;;;31.47;44.66;98494.34;5114925;28;20273;-56
2023/07/17 09:05:58;;;;;;;8.05;5.43;;;;;;;31.57;44.38;98499.94;5114475;28;20195;-56
2023/07/17 09:08:24;;;;;;;6.80;5.05;;;;;;;31.52;44.60;98481.09;5114800;28;20179;-55
2023/07/17 09:11:06;;;;;;;8.25;5.00;;;;;;;31.53;44.47;98473.88;5114809;28;20568;-56
2023/07/17 09:13:39;;;;;;;12.07;5.28;;;;;;;31.63;44.56;98477.56;5114707;28;20228;-56
2023/07/17 09:16:15;;;;;;;7.15;5.47;;;;;;;31.67;43.25;98477.91;5114637;28;20194;-56
2023/07/17 09:18:40;;;;;;;10.50;5.43;;;;;;;31.70;43.17;98478.25;5114503;28;20769;-56
2023/07/17 09:21:06;;;;;;;10.30;5.90;;;;;;;31.68;44.18;98466.97;5114534;28;20176;-56
2023/07/17 09:23:43;;;;;;;12.02;5.25;;;;;;;31.79;43.86;98482.22;5114267;28;20175;-56
2023/07/17 09:26:09;;;;;;;13.07;5.63;;;;;;;31.86;43.80;98468.66;5111955;28;20282;-57
2023/07/17 09:28:37;;;;;;;8.43;5.05;;;;;;;32.10;43.93;98484.41;5111980;28;20265;-56
2023/07/17 09:31:03;;;;;;;7.32;4.97;;;;;;;32.18;43.13;98486.69;5112056;28;20626;-56
2023/07/17 09:33:29;;;;;;;14.77;5.28;;;;;;;32.23;42.99;98481.41;5111910;28;20171;-55
2023/07/17 09:35:57;;;;;;;10.32;5.55;;;;;;;32.20;42.72;98479.25;5111914;28;20625;-56
2023/07/17 09:38:26;;;;;;;12.77;5.93;;;;;;;32.17;43.29;98477.03;5111823;28;20543;-56
2023/07/17 09:40:51;;;;;;;10.90;5.63;;;;;;;32.29;43.55;98483.16;5111691;28;20260;-56
2023/07/17 09:43:31;;;;;;;8.90;5.13;;;;;;;32.02;42.68;98447.31;5111722;28;20590;-56
2023/07/17 09:46:00;;;;;;;12.55;5.10;;;;;;;32.35;42.58;98476.06;5111794;28;20190;-56
2023/07/17 09:48:30;;;;;;;8.65;5.90;;;;;;;32.43;43.47;98479.16;5111644;28;20185;-56
2023/07/17 09:50:57;;;;;;;18.08;5.15;;;;;;;32.38;42.80;98443.41;5111605;28;20566;-56
2023/07/17 09:53:24;;;;;;;11.95;5.40;;;;;;;32.71;42.82;98471.00;5111399;28;20182;-56
2023/07/17 09:55:51;;;;;;;6.20;5.25;;;;;;;32.55;41.71;98447.72;5111405;28;20285;-56
2023/07/17 09:58:18;;;;;;;10.90;5.40;;;;;;;32.35;42.41;98460.78;5113346;28;20219;-56
2023/07/17 10:00:48;;;;;;;10.82;5.43;;;;;;;32.57;42.53;98469.72;5113543;28;20641;-56
2023/07/17 10:03:17;;;;;;;10.60;5.40;;;;;;;32.72;42.95;98464.63;5113745;28;20170;-56
2023/07/17 10:05:43;;;;;;;10.00;5.68;;;;;;;32.62;42.01;98450.22;5113181;28;20281;-56
2023/07/17 10:08:10;;;;;;;7.55;5.18;;;;;;;32.79;42.27;98464.47;5113929;28;20297;-57
2023/07/17 10:10:40;;;;;;;11.95;5.25;;;;;;;32.74;42.07;98459.00;5113615;28;20607;-56
2023/07/17 10:13:07;;;;;;;10.70;6.13;;;;;;;32.85;42.05;98450.91;5113521;28;20210;-56
2023/07/17 10:15:34;;;;;;;7.47;6.18;;;;;;;32.85;41.55;98437.50;5113492;28;20182;-56
2023/07/17 10:17:59;;;;;;;9.55;5.72;;;;;;;32.71;41.63;98422.75;5113386;28;20209;-56
2023/07/17 10:20:29;;;;;;;8.20;5.50;;;;;;;32.99;41.62;98446.81;5113661;28;20171;-57
2023/07/17 10:22:54;;;;;;;9.88;5.60;;;;;;;33.04;41.93;98435.34;5113102;28;20572;-56
2023/07/17 10:25:19;;;;;;;10.93;5.85;;;;;;;33.28;41.33;98444.84;5113210;28;20185;-56
2023/07/17 10:27:47;;;;;;;8.35;5.97;;;;;;;33.30;41.16;98411.34;5113280;28;20232;-56
2023/07/17 10:30:35;;;;;;;6.60;5.57;;;;;;;33.66;40.56;98444.75;5113160;28;20205;-56
2023/07/17 10:33:14;;;;;;;7.25;6.25;;;;;;;33.88;40.90;98437.53;5113179;28;20163;-57
2023/07/17 10:35:54;;;;;;;10.40;6.18;;;;;;;34.05;39.85;98441.72;5113127;28;20179;-57
2023/07/17 10:38:29;;;;;;;9.73;5.97;;;;;;;34.20;39.95;98439.19;5113029;28;20234;-57
2023/07/17 10:41:05;;;;;;;11.02;6.72;;;;;;;34.36;39.77;98432.91;5113293;28;20315;-57
2023/07/17 10:43:33;;;;;;;13.80;6.32;;;;;;;34.46;39.31;98416.06;5112858;28;20175;-57
2023/07/17 10:45:59;;;;;;;9.10;5.95;;;;;;;34.65;39.27;98420.78;5113000;28;20248;-57
2023/07/17 10:48:26;;;;;;;14.95;5.72;;;;;;;34.56;38.81;98408.88;5112839;28;20235;-56
2023/07/17 10:50:53;;;;;;;10.20;5.97;;;;;;;34.58;39.21;98414.81;5112783;28;20198;-57
2023/07/17 10:53:19;;;;;;;8.05;6.07;;;;;;;34.76;39.07;98389.41;5112688;28;20189;-56
2023/07/17 10:55:46;;;;;;;7.70;6.03;;;;;;;35.02;39.25;98378.53;5131017;27;20649;-56
2023/07/17 10:58:12;;;;;;;12.57;6.63;;;;;;;35.44;38.41;98405.41;5130571;27;20308;-56
2023/07/17 11:00:42;;;;;;;11.40;6.85;;;;;;;35.38;37.79;98391.09;5130786;27;20377;-56
2023/07/17 11:03:08;;;;;;;11.45;6.57;;;;;;;35.52;38.09;98408.38;5130711;27;20182;-56
2023/07/17 11:05:40;;;;;;;7.53;6.18;;;;;;;35.73;38.72;98385.03;5130546;27;20202;-56
2023/07/17 11:08:07;;;;;;;8.43;6.90;;;;;;;35.98;37.47;98412.84;5130654;27;20270;-56
2023/07/17 11:10:34;;;;;;;8.57;6.90;;;;;;;36.06;37.75;98406.91;5130624;27;20202;-56
2023/07/17 11:13:02;;;;;;;8.93;7.40;;;;;;;36.21;37.95;98396.19;5130644;27;20268;-56
2023/07/17 11:15:31;;;;;;;12.63;7.28;;;;;;;36.23;37.40;98380.53;5130634;27;20190;-56
2023/07/17 11:17:58;;;;;;;10.50;7.20;;;;;;;36.22;37.92;98378.94;5129813;27;20206;-56
2023/07/17 11:20:24;;;;;;;8.63;6.88;;;;;;;36.29;37.70;98390.25;5130424;27;20649;-56
2023/07/17 11:22:49;;;;;;;13.68;7.95;;;;;;;36.43;37.21;98390.50;5130582;28;20185;-56
2023/07/17 11:25:14;;;;;;;9.48;7.22;;;;;;;36.39;37.44;98375.94;5130524;28;20201;-56
2023/07/17 11:27:40;;;;;;;11.80;7.60;;;;;;;36.61;37.86;98401.53;5130492;28;20197;-56